Time;durP1;ratioP1;P1;durP2;ratioP2;P2;SDS_P1;SDS_P2;PMS_P1;PMS_P2;Temp;Humidity;BMP_temperature;BMP_pressure;BME280_temperature;BME280_humidity;BME280_pressure;Samples;Min_cycle;Max_cycle;Signal;HPM_P1;HPM_P2
2022/02/15 00:00:17;;;;;;;4.85;4.10;;;5.50;99.90;;;;;;5091458;28;20050;-71
2022/02/15 00:02:49;;;;;;;5.15;4.43;;;5.50;99.90;;;;;;5072364;28;20040;-71
2022/02/15 00:05:16;;;;;;;5.82;4.40;;;5.50;99.90;;;;;;5090061;28;20043;-71
2022/02/15 00:07:48;;;;;;;5.65;4.43;;;5.50;99.90;;;;;;5091357;28;20036;-71
2022/02/15 00:10:20;;;;;;;5.50;4.10;;;5.50;99.90;;;;;;5091164;28;20044;-71
2022/02/15 00:12:51;;;;;;;6.63;4.93;;;5.50;99.90;;;;;;5090574;28;20043;-71
2022/02/15 00:15:25;;;;;;;5.32;4.03;;;5.50;99.90;;;;;;5091131;28;20062;-71
2022/02/15 00:17:57;;;;;;;;;;;5.50;99.90;;;;;;5057710;28;20498;-71
2022/02/15 00:20:29;;;;;;;5.40;4.30;;;5.50;99.90;;;;;;5091152;28;20301;-71
2022/02/15 00:23:01;;;;;;;5.25;4.32;;;5.50;99.90;;;;;;5090500;28;20040;-72
2022/02/15 00:25:33;;;;;;;6.43;4.43;;;5.40;99.90;;;;;;5091065;28;20421;-71
2022/02/15 00:28:05;;;;;;;5.07;4.28;;;5.50;99.90;;;;;;5091024;28;20036;-72
2022/02/15 00:30:32;;;;;;;6.28;4.65;;;5.40;99.90;;;;;;5072964;28;20126;-71
2022/02/15 00:33:04;;;;;;;6.28;4.35;;;5.40;99.90;;;;;;5089439;28;20058;-71
2022/02/15 00:35:31;;;;;;;6.78;4.10;;;5.40;99.90;;;;;;5090862;28;20039;-71
2022/02/15 00:38:03;;;;;;;5.97;4.65;;;5.40;99.90;;;;;;5056854;28;20063;-71
2022/02/15 00:40:38;;;;;;;6.13;4.20;;;5.40;99.90;;;;;;5089845;28;20050;-72
2022/02/15 00:43:10;;;;;;;7.47;4.20;;;5.40;99.90;;;;;;5073394;28;20044;-71
2022/02/15 00:45:42;;;;;;;5.18;4.20;;;5.40;99.90;;;;;;5072790;28;20036;-71
2022/02/15 00:48:11;;;;;;;5.38;4.32;;;5.30;99.90;;;;;;5056377;28;20040;-72
2022/02/15 00:50:43;;;;;;;6.25;4.20;;;5.30;99.90;;;;;;5072766;28;20489;-72
2022/02/15 00:53:17;;;;;;;6.28;5.05;;;5.20;99.90;;;;;;5072039;28;20051;-72
2022/02/15 00:55:44;;;;;;;6.18;4.50;;;5.20;99.90;;;;;;5090776;28;20040;-72
2022/02/15 00:58:16;;;;;;;6.15;5.03;;;5.20;99.90;;;;;;5072715;28;20113;-72
2022/02/15 01:00:43;;;;;;;5.80;4.55;;;5.20;99.90;;;;;;5072643;28;20055;-72
2022/02/15 01:03:11;;;;;;;8.95;6.00;;;5.10;99.90;;;;;;5055903;28;20063;-72
2022/02/15 01:05:43;;;;;;;9.18;5.78;;;5.10;99.90;;;;;;5090702;28;20063;-71
2022/02/15 01:08:12;;;;;;;10.43;6.85;;;5.10;99.90;;;;;;5091974;28;20055;-72
2022/02/15 01:10:41;;;;;;;9.65;6.43;;;5.00;99.90;;;;;;5060214;28;20502;-72
2022/02/15 01:13:13;;;;;;;9.43;6.78;;;5.00;99.90;;;;;;5094354;28;20119;-71
2022/02/15 01:15:45;;;;;;;10.57;7.65;;;5.00;99.90;;;;;;5094473;28;20517;-72
2022/02/15 01:18:17;;;;;;;10.23;6.90;;;4.90;99.90;;;;;;5077408;28;20401;-71
2022/02/15 01:20:50;;;;;;;12.18;7.10;;;5.00;99.90;;;;;;5060575;28;20040;-72
2022/02/15 01:23:17;;;;;;;9.95;7.63;;;5.00;99.90;;;;;;5075774;28;20142;-72
2022/02/15 01:25:43;;;;;;;10.88;7.70;;;4.90;99.90;;;;;;5075933;28;20131;-71
2022/02/15 01:28:16;;;;;;;12.55;8.52;;;4.90;99.90;;;;;;5093215;28;20051;-71
2022/02/15 01:30:42;;;;;;;12.68;8.35;;;4.90;99.90;;;;;;5076197;28;20064;-72
2022/02/15 01:33:14;;;;;;;12.10;8.48;;;4.80;99.90;;;;;;5092696;28;20067;-72
2022/02/15 01:35:48;;;;;;;12.20;8.40;;;4.80;99.90;;;;;;5076105;28;20127;-72
2022/02/15 01:38:20;;;;;;;13.20;8.55;;;4.80;99.90;;;;;;5076357;28;20055;-72
2022/02/15 01:40:52;;;;;;;10.90;7.65;;;4.80;99.90;;;;;;5076230;28;20180;-72
2022/02/15 01:43:25;;;;;;;10.93;8.23;;;4.80;99.90;;;;;;5075922;28;20040;-72
2022/02/15 01:45:57;;;;;;;11.20;7.55;;;4.80;99.90;;;;;;5059639;28;20040;-72
2022/02/15 01:48:24;;;;;;;12.45;8.68;;;4.70;99.90;;;;;;5092703;28;20048;-72
2022/02/15 01:50:58;;;;;;;11.77;8.43;;;4.70;99.90;;;;;;5075300;28;20067;-72
2022/02/15 01:53:33;;;;;;;13.48;8.75;;;4.70;99.90;;;;;;5074901;28;20054;-71
2022/02/15 01:56:10;;;;;;;12.77;8.43;;;4.70;99.90;;;;;;5073671;28;20442;-72
2022/02/15 01:58:47;;;;;;;12.65;9.13;;;4.70;99.90;;;;;;5093584;28;20112;-72
2022/02/15 02:01:18;;;;;;;13.52;8.55;;;4.70;99.90;;;;;;5074432;28;20100;-71
2022/02/15 02:04:05;;;;;;;12.07;8.55;;;4.70;99.90;;;;;;5074391;28;20052;-71
2022/02/15 02:06:32;;;;;;;13.40;8.48;;;4.60;99.90;;;;;;5074420;28;20131;-71
2022/02/15 02:09:04;;;;;;;12.45;8.63;;;4.60;99.90;;;;;;5074379;28;20450;-72
2022/02/15 02:11:37;;;;;;;14.05;9.32;;;4.60;99.90;;;;;;5074584;28;20090;-71
2022/02/15 02:14:16;;;;;;;13.93;10.07;;;4.60;99.90;;;;;;5073800;28;20120;-71
2022/02/15 02:16:51;;;;;;;14.43;9.98;;;4.60;99.90;;;;;;5058848;28;20044;-72
2022/02/15 02:19:30;;;;;;;14.05;9.35;;;4.60;99.90;;;;;;5091864;28;20609;-71
2022/02/15 02:22:02;;;;;;;12.95;8.90;;;4.60;99.90;;;;;;5058311;28;20117;-71
2022/02/15 02:24:34;;;;;;;13.35;9.05;;;4.60;99.90;;;;;;5073855;28;20511;-72
2022/02/15 02:27:07;;;;;;;13.68;9.73;;;4.60;99.90;;;;;;5074196;28;20124;-72
2022/02/15 02:29:33;;;;;;;13.90;9.23;;;4.60;99.90;;;;;;5092136;28;20036;-72
2022/02/15 02:32:06;;;;;;;14.43;9.57;;;4.60;99.90;;;;;;5074167;28;20044;-72
2022/02/15 02:34:40;;;;;;;15.98;10.18;;;4.60;99.90;;;;;;5073740;28;20059;-72
2022/02/15 02:37:13;;;;;;;13.77;9.25;;;4.60;99.90;;;;;;5090670;28;20631;-72
2022/02/15 02:39:47;;;;;;;15.48;9.40;;;4.60;99.90;;;;;;5073963;28;20078;-71
2022/02/15 02:42:21;;;;;;;13.75;8.88;;;4.60;99.90;;;;;;5090621;28;20047;-72
2022/02/15 02:44:59;;;;;;;17.80;13.10;;;4.60;99.90;;;;;;5073878;28;20076;-71
2022/02/15 02:47:26;;;;;;;12.55;8.88;;;4.60;99.90;;;;;;5057252;28;20036;-71
2022/02/15 02:49:58;;;;;;;11.05;8.80;;;4.60;99.90;;;;;;5073606;28;20497;-71
2022/02/15 02:52:34;;;;;;;11.57;8.38;;;4.60;99.90;;;;;;5090073;28;20043;-71
2022/02/15 02:55:07;;;;;;;11.35;8.07;;;4.50;99.90;;;;;;5073774;28;20058;-72
2022/02/15 02:57:41;;;;;;;10.70;8.20;;;4.60;99.90;;;;;;5073752;28;20058;-71
2022/02/15 03:00:17;;;;;;;12.27;7.57;;;4.60;99.90;;;;;;5090200;28;20048;-71
2022/02/15 03:03:15;;;;;;;11.82;8.57;;;4.60;99.90;;;;;;5088455;28;20189;-71
2022/02/15 03:05:47;;;;;;;12.38;8.40;;;4.60;99.90;;;;;;5073489;28;20074;-71
2022/02/15 03:08:19;;;;;;;10.77;7.93;;;4.60;99.90;;;;;;5073326;28;20075;-71
2022/02/15 03:10:51;;;;;;;10.70;7.63;;;4.50;99.90;;;;;;5073558;28;20044;-71
2022/02/15 03:13:30;;;;;;;11.80;7.18;;;4.60;99.90;;;;;;5072586;28;20044;-71
2022/02/15 03:15:58;;;;;;;9.25;6.55;;;4.60;99.90;;;;;;5073228;28;20448;-71
2022/02/15 03:18:30;;;;;;;8.73;6.32;;;4.60;99.90;;;;;;5073456;28;20044;-72
2022/02/15 03:21:09;;;;;;;9.25;6.80;;;4.60;99.90;;;;;;5073293;28;20044;-72
2022/02/15 03:23:42;;;;;;;9.05;6.63;;;4.60;99.90;;;;;;5057046;28;20315;-71
2022/02/15 03:26:14;;;;;;;8.30;6.05;;;4.60;99.90;;;;;;5072983;28;20048;-71
2022/02/15 03:28:42;;;;;;;9.75;6.63;;;4.60;99.90;;;;;;5090123;28;20449;-71
2022/02/15 03:31:15;;;;;;;9.68;7.40;;;4.60;99.90;;;;;;5071864;28;20044;-71
2022/02/15 03:33:51;;;;;;;8.48;6.18;;;4.60;99.90;;;;;;5089856;28;20062;-71
2022/02/15 03:36:24;;;;;;;9.57;5.97;;;4.60;99.90;;;;;;5072789;28;20131;-71
2022/02/15 03:39:05;;;;;;;7.07;5.57;;;4.60;99.90;;;;;;5072799;28;20071;-71
2022/02/15 03:44:32;;;;;;;9.43;6.80;;;4.60;99.90;;;;;;5090693;28;20172;-72
2022/02/15 03:47:07;;;;;;;8.57;5.57;;;4.60;99.90;;;;;;5091002;28;20042;-71
2022/02/15 03:49:41;;;;;;;8.73;5.63;;;4.60;99.90;;;;;;5072970;28;20048;-71
2022/02/15 03:52:14;;;;;;;;;;;4.60;99.90;;;;;;5090060;28;20533;-71
2022/02/15 03:54:44;;;;;;;7.85;5.97;;;4.50;99.90;;;;;;5106746;28;20349;-72
2022/02/15 03:57:11;;;;;;;10.85;6.70;;;4.50;99.90;;;;;;5089502;28;20078;-71
2022/02/15 03:59:38;;;;;;;10.57;6.80;;;4.50;99.90;;;;;;5072977;28;20047;-72
2022/02/15 04:02:10;;;;;;;9.05;6.70;;;4.50;99.90;;;;;;5072622;28;20044;-71
2022/02/15 04:04:42;;;;;;;8.32;6.15;;;4.50;99.90;;;;;;5090656;28;20135;-71
2022/02/15 04:07:16;;;;;;;7.13;5.40;;;4.50;99.90;;;;;;5072240;28;20498;-71
2022/02/15 04:09:48;;;;;;;9.98;6.22;;;4.50;99.90;;;;;;5057043;28;20043;-71
2022/02/15 04:12:15;;;;;;;7.97;5.95;;;4.50;99.90;;;;;;5072430;28;20113;-72
2022/02/15 04:14:48;;;;;;;8.35;5.38;;;4.50;99.90;;;;;;5088689;28;20135;-71
2022/02/15 04:17:25;;;;;;;9.07;5.38;;;4.40;99.90;;;;;;5073265;28;20040;-71
2022/02/15 04:19:58;;;;;;;9.63;5.15;;;4.40;99.90;;;;;;5090451;28;20040;-72
2022/02/15 04:22:30;;;;;;;7.13;4.97;;;4.40;99.90;;;;;;5072973;28;20410;-71
2022/02/15 04:24:57;;;;;;;7.00;5.05;;;4.40;99.90;;;;;;5073372;28;20095;-72
2022/02/15 04:27:29;;;;;;;6.97;5.20;;;4.40;99.90;;;;;;5072779;28;20048;-72
2022/02/15 04:29:57;;;;;;;7.18;5.13;;;4.40;99.90;;;;;;5072728;28;20040;-71
2022/02/15 04:32:30;;;;;;;;;;;4.40;99.90;;;;;;5072765;28;20040;-71
2022/02/15 04:34:58;;;;;;;6.65;4.63;;;4.40;99.90;;;;;;5106602;28;19920;-72
2022/02/15 04:37:30;;;;;;;7.20;4.40;;;4.40;99.90;;;;;;5072671;28;20058;-71
2022/02/15 04:40:03;;;;;;;6.13;4.13;;;4.40;99.90;;;;;;5090751;28;20127;-71
2022/02/15 04:42:36;;;;;;;;;;;4.40;99.90;;;;;;5090916;28;20498;-71
2022/02/15 04:45:09;;;;;;;6.53;4.25;;;4.30;99.90;;;;;;5092821;28;20019;-72
2022/02/15 04:47:45;;;;;;;6.95;4.93;;;4.30;99.90;;;;;;5076474;28;20059;-72
2022/02/15 04:50:12;;;;;;;8.93;5.45;;;4.40;99.90;;;;;;5094964;28;20468;-72
2022/02/15 04:52:41;;;;;;;7.13;4.72;;;4.30;99.90;;;;;;5075427;28;20115;-71
2022/02/15 04:55:18;;;;;;;6.97;4.20;;;4.30;99.90;;;;;;5060570;28;20044;-71
2022/02/15 04:57:52;;;;;;;5.57;4.38;;;4.30;99.90;;;;;;5091742;28;20529;-71
2022/02/15 05:00:27;;;;;;;6.22;4.22;;;4.30;99.90;;;;;;5077558;28;20066;-71
2022/02/15 05:03:10;;;;;;;6.45;3.53;;;4.30;99.90;;;;;;5075073;28;20043;-73
2022/02/15 05:05:45;;;;;;;8.88;3.90;;;4.40;99.90;;;;;;5075675;28;20040;-71
2022/02/15 05:08:20;;;;;;;6.90;4.25;;;4.40;99.90;;;;;;5075525;28;20485;-72
2022/02/15 05:10:58;;;;;;;6.15;3.90;;;4.40;99.90;;;;;;5075613;28;20040;-72
2022/02/15 05:13:38;;;;;;;5.65;3.55;;;4.30;99.90;;;;;;5060229;28;20120;-71
2022/02/15 05:16:24;;;;;;;7.30;3.70;;;4.30;99.90;;;;;;5071454;28;20036;-72
2022/02/15 05:19:07;;;;;;;4.88;3.55;;;4.30;99.90;;;;;;5083111;28;20426;-71
2022/02/15 05:21:39;;;;;;;6.55;4.00;;;4.30;99.90;;;;;;5056025;28;20068;-72
2022/02/15 05:24:06;;;;;;;4.90;3.40;;;4.30;99.90;;;;;;5089083;28;20044;-72
2022/02/15 05:26:46;;;;;;;5.10;3.05;;;4.30;99.90;;;;;;5072344;28;20051;-71
2022/02/15 05:29:45;;;;;;;6.13;4.18;;;4.30;99.90;;;;;;5066927;28;20042;-72
2022/02/15 05:32:23;;;;;;;5.40;3.60;;;4.30;99.90;;;;;;5074888;28;20093;-71
2022/02/15 05:34:51;;;;;;;5.75;3.15;;;4.30;99.90;;;;;;5093499;28;20044;-72
2022/02/15 05:37:23;;;;;;;4.40;3.13;;;4.30;99.90;;;;;;5071815;28;20498;-71
2022/02/15 05:39:55;;;;;;;6.97;4.63;;;4.20;99.90;;;;;;5076060;28;20109;-71
2022/02/15 05:42:43;;;;;;;4.97;3.72;;;4.30;99.90;;;;;;5075605;28;20162;-71
2022/02/15 05:45:16;;;;;;;8.63;4.13;;;4.20;99.90;;;;;;5093540;28;20047;-71
2022/02/15 05:48:04;;;;;;;4.90;3.53;;;4.20;99.90;;;;;;5075643;28;20612;-71
2022/02/15 05:50:51;;;;;;;5.10;3.55;;;4.20;99.90;;;;;;5069118;28;20676;-77
2022/02/15 05:53:41;;;;;;;7.10;4.72;;;4.20;99.90;;;;;;5073221;28;20064;-71
2022/02/15 05:56:21;;;;;;;5.50;3.72;;;4.10;99.90;;;;;;5059217;28;20040;-71
2022/02/15 05:59:06;;;;;;;5.90;3.90;;;4.10;99.90;;;;;;5075853;28;20572;-71
2022/02/15 06:01:49;;;;;;;6.05;3.88;;;4.10;99.90;;;;;;5075310;28;20098;-72
2022/02/15 06:04:24;;;;;;;6.20;4.35;;;4.10;99.90;;;;;;5091713;28;20112;-71
2022/02/15 06:07:14;;;;;;;6.95;4.20;;;4.10;99.90;;;;;;5084595;28;20572;-71
2022/02/15 06:09:46;;;;;;;6.95;4.30;;;4.10;99.90;;;;;;5075012;28;20474;-71
2022/02/15 06:12:19;;;;;;;9.88;5.88;;;4.10;99.90;;;;;;5074898;28;20032;-72
2022/02/15 06:15:04;;;;;;;6.35;4.25;;;4.10;99.90;;;;;;5075198;28;20067;-72
2022/02/15 06:17:51;;;;;;;6.07;4.13;;;4.10;99.90;;;;;;5092884;28;20052;-72
2022/02/15 06:20:18;;;;;;;5.70;4.10;;;4.10;99.90;;;;;;5091675;28;20534;-71
2022/02/15 06:22:52;;;;;;;6.22;4.20;;;4.10;99.90;;;;;;5089309;28;20119;-71
2022/02/15 06:25:24;;;;;;;6.20;4.47;;;4.10;99.90;;;;;;5074770;28;20048;-71
2022/02/15 06:27:57;;;;;;;5.78;4.38;;;4.10;99.90;;;;;;5074900;28;20036;-71
2022/02/15 06:30:43;;;;;;;7.25;4.60;;;4.10;99.90;;;;;;5091760;28;20055;-71
2022/02/15 06:33:20;;;;;;;6.82;4.57;;;4.10;99.90;;;;;;5091337;28;20471;-71
2022/02/15 06:35:49;;;;;;;6.40;3.88;;;4.10;99.90;;;;;;5077636;28;20048;-70
2022/02/15 06:38:16;;;;;;;5.88;4.47;;;4.10;99.90;;;;;;5092587;28;20135;-71
2022/02/15 06:41:14;;;;;;;6.28;4.07;;;4.20;99.90;;;;;;5088649;28;20059;-71
2022/02/15 06:43:53;;;;;;;6.88;4.13;;;4.20;99.90;;;;;;5080682;28;20045;-71
2022/02/15 06:46:33;;;;;;;6.18;4.22;;;4.10;99.90;;;;;;5055520;28;20040;-71
2022/02/15 06:49:18;;;;;;;7.60;4.88;;;4.10;99.90;;;;;;5068386;28;20044;-71
2022/02/15 06:52:09;;;;;;;5.88;4.18;;;4.10;99.90;;;;;;5089337;28;20141;-72
2022/02/15 06:54:42;;;;;;;8.07;6.43;;;4.10;99.90;;;;;;5074223;28;20036;-71
2022/02/15 06:57:09;;;;;;;6.22;4.57;;;4.10;99.90;;;;;;5074756;28;20567;-71
2022/02/15 06:59:42;;;;;;;7.60;5.18;;;4.20;99.90;;;;;;5072148;28;20093;-72
2022/02/15 07:02:09;;;;;;;6.55;4.65;;;4.10;99.90;;;;;;5071230;28;20047;-71
2022/02/15 07:04:42;;;;;;;7.35;4.55;;;4.10;99.90;;;;;;5071276;28;21078;-71
2022/02/15 07:07:09;;;;;;;6.45;4.22;;;4.10;99.90;;;;;;5075374;28;20044;-71
2022/02/15 07:09:38;;;;;;;6.72;4.38;;;4.10;99.90;;;;;;5074110;28;20032;-71
2022/02/15 07:12:10;;;;;;;7.10;4.72;;;4.10;99.90;;;;;;5090140;28;20040;-71
2022/02/15 07:15:02;;;;;;;5.47;4.00;;;4.10;99.90;;;;;;5066840;28;20059;-72
2022/02/15 07:17:42;;;;;;;6.95;4.75;;;4.10;99.90;;;;;;5084883;28;20081;-71
2022/02/15 07:20:21;;;;;;;6.72;4.45;;;4.20;99.90;;;;;;5062801;28;20040;-72
2022/02/15 07:23:14;;;;;;;6.93;4.18;;;4.20;99.90;;;;;;5074669;28;20056;-72
2022/02/15 07:26:06;;;;;;;6.60;4.43;;;4.20;99.90;;;;;;5059392;28;20583;-71
2022/02/15 07:29:02;;;;;;;7.40;3.95;;;4.20;99.90;;;;;;5068735;28;20084;-71
2022/02/15 07:31:34;;;;;;;7.07;4.00;;;4.20;99.90;;;;;;5086031;28;20044;-71
2022/02/15 07:34:01;;;;;;;4.90;3.50;;;4.30;99.90;;;;;;5056457;28;20577;-71
2022/02/15 07:36:36;;;;;;;6.00;3.92;;;4.30;99.90;;;;;;5065955;28;20046;-71
2022/02/15 07:39:08;;;;;;;5.03;3.53;;;4.30;99.90;;;;;;5076017;28;20522;-71
2022/02/15 07:41:40;;;;;;;4.47;3.33;;;4.30;99.90;;;;;;5073105;28;20122;-71
2022/02/15 07:44:06;;;;;;;5.35;3.40;;;4.30;99.90;;;;;;5089004;28;20641;-72
2022/02/15 07:46:46;;;;;;;5.50;4.00;;;4.30;99.90;;;;;;5087036;28;20756;-71
2022/02/15 07:49:18;;;;;;;5.55;3.40;;;4.30;99.90;;;;;;5077310;28;20578;-71
2022/02/15 07:51:46;;;;;;;5.88;3.63;;;4.40;99.90;;;;;;5089611;28;20089;-72
2022/02/15 07:54:18;;;;;;;5.10;3.35;;;4.40;99.90;;;;;;5067514;28;20084;-71
2022/02/15 07:56:51;;;;;;;4.63;3.35;;;4.50;99.90;;;;;;5053928;28;20545;-71
2022/02/15 07:59:19;;;;;;;4.50;3.03;;;4.50;99.90;;;;;;5070167;28;20101;-71
2022/02/15 08:01:51;;;;;;;5.57;3.20;;;4.50;99.90;;;;;;5071635;28;20071;-72
2022/02/15 08:04:19;;;;;;;4.60;3.40;;;4.60;99.90;;;;;;5087947;28;20444;-71
2022/02/15 08:06:55;;;;;;;5.45;3.15;;;4.60;99.90;;;;;;5081057;28;20584;-71
2022/02/15 08:09:24;;;;;;;4.18;2.90;;;4.60;99.90;;;;;;5053188;28;20522;-71
2022/02/15 08:11:55;;;;;;;5.05;3.60;;;4.60;99.90;;;;;;5068317;28;20429;-71
2022/02/15 08:14:27;;;;;;;6.88;3.58;;;4.70;99.90;;;;;;5053378;28;20135;-71
2022/02/15 08:16:59;;;;;;;5.25;3.63;;;4.70;99.90;;;;;;5065009;28;20097;-72
2022/02/15 08:19:27;;;;;;;6.20;3.70;;;4.70;99.90;;;;;;5083790;28;20047;-71
2022/02/15 08:22:00;;;;;;;4.30;3.55;;;4.70;99.90;;;;;;5067816;28;20055;-71
2022/02/15 08:24:32;;;;;;;5.45;4.15;;;4.80;99.90;;;;;;5103967;28;20074;-72
2022/02/15 08:27:05;;;;;;;6.00;3.88;;;4.80;99.90;;;;;;5052462;28;20048;-71
2022/02/15 08:29:37;;;;;;;5.22;3.70;;;4.80;99.90;;;;;;5073201;28;20044;-72
2022/02/15 08:32:08;;;;;;;6.05;3.72;;;4.90;99.90;;;;;;5073427;28;20115;-72
2022/02/15 08:34:36;;;;;;;4.25;3.35;;;4.80;99.90;;;;;;5089273;28;20044;-71
2022/02/15 08:37:07;;;;;;;8.32;4.20;;;4.90;99.90;;;;;;5091150;28;20123;-71
2022/02/15 08:39:39;;;;;;;6.13;3.85;;;4.90;99.90;;;;;;5089479;28;20040;-73
2022/02/15 08:42:11;;;;;;;5.70;4.20;;;5.00;99.90;;;;;;5090518;28;20064;-71
2022/02/15 08:44:44;;;;;;;6.22;4.10;;;5.00;99.90;;;;;;5075193;28;20127;-72
2022/02/15 08:47:16;;;;;;;6.93;5.05;;;5.10;99.90;;;;;;5070973;28;20043;-72
2022/02/15 08:49:51;;;;;;;6.93;4.50;;;5.10;99.90;;;;;;5071667;28;20625;-71
2022/02/15 08:52:23;;;;;;;5.82;4.22;;;5.10;99.90;;;;;;5070238;28;20517;-71
2022/02/15 08:54:55;;;;;;;7.03;4.55;;;5.10;99.90;;;;;;5086159;28;20056;-71
2022/02/15 08:57:27;;;;;;;6.65;4.35;;;5.20;99.90;;;;;;5073914;28;20043;-71
2022/02/15 08:59:59;;;;;;;6.45;4.55;;;5.20;99.90;;;;;;5072651;28;20062;-71
2022/02/15 09:02:31;;;;;;;9.75;5.47;;;5.20;99.90;;;;;;5084977;28;20046;-71
2022/02/15 09:05:04;;;;;;;9.20;5.03;;;5.30;99.90;;;;;;5086663;28;20033;-71
2022/02/15 09:07:37;;;;;;;5.88;4.13;;;5.30;99.90;;;;;;5078552;28;20040;-72
2022/02/15 09:10:09;;;;;;;6.10;4.65;;;5.30;99.90;;;;;;5081070;28;20040;-71
2022/02/15 09:12:41;;;;;;;6.65;4.50;;;5.30;99.90;;;;;;5070355;28;20056;-71
2022/02/15 09:15:13;;;;;;;6.72;4.97;;;5.30;99.90;;;;;;5072139;28;20123;-71
2022/02/15 09:17:45;;;;;;;7.50;5.50;;;5.30;99.90;;;;;;5089928;28;20557;-71
2022/02/15 09:20:18;;;;;;;6.85;4.75;;;5.30;99.90;;;;;;5088936;28;20131;-71
2022/02/15 09:22:49;;;;;;;6.90;4.68;;;5.30;99.90;;;;;;5055933;28;20123;-71
2022/02/15 09:25:16;;;;;;;6.88;5.05;;;5.40;99.90;;;;;;5087516;28;20066;-72
2022/02/15 09:27:48;;;;;;;8.45;5.68;;;5.40;99.90;;;;;;5061315;28;20652;-72
2022/02/15 09:30:20;;;;;;;8.05;5.78;;;5.50;99.90;;;;;;5077807;28;20127;-72
2022/02/15 09:32:53;;;;;;;6.95;5.00;;;5.50;99.90;;;;;;5052800;28;20037;-71
2022/02/15 09:35:25;;;;;;;7.43;5.80;;;5.50;99.90;;;;;;5080111;28;20119;-72
2022/02/15 09:37:57;;;;;;;7.32;5.13;;;5.60;99.90;;;;;;5073630;28;20032;-72
2022/02/15 09:40:29;;;;;;;8.07;5.55;;;5.60;99.90;;;;;;5091053;28;20032;-71
2022/02/15 09:43:01;;;;;;;7.85;5.10;;;5.70;99.90;;;;;;5090505;28;20041;-71
2022/02/15 09:45:28;;;;;;;7.45;6.00;;;5.70;99.90;;;;;;5075927;28;20127;-71
2022/02/15 09:48:02;;;;;;;6.57;5.40;;;5.80;99.90;;;;;;5094070;28;20123;-72
2022/02/15 09:50:35;;;;;;;6.78;5.45;;;5.80;99.90;;;;;;5094270;28;20122;-71
2022/02/15 09:53:07;;;;;;;7.43;5.65;;;5.80;99.90;;;;;;5059278;28;20050;-72
2022/02/15 09:55:39;;;;;;;8.05;5.68;;;5.80;99.90;;;;;;5093693;28;20063;-71
2022/02/15 09:58:10;;;;;;;8.75;5.70;;;5.90;99.90;;;;;;5091042;28;20494;-71
2022/02/15 10:00:46;;;;;;;7.18;5.47;;;6.00;99.90;;;;;;5092010;28;20040;-72
2022/02/15 10:03:18;;;;;;;9.63;7.00;;;6.00;99.90;;;;;;5084794;28;20054;-71
2022/02/15 10:05:51;;;;;;;8.55;5.97;;;6.00;99.90;;;;;;5072634;28;20048;-71
2022/02/15 10:08:28;;;;;;;8.27;5.60;;;6.00;99.90;;;;;;5093706;28;20100;-71
2022/02/15 10:11:10;;;;;;;8.70;5.72;;;6.10;99.90;;;;;;5059191;28;20032;-71
2022/02/15 10:13:47;;;;;;;8.52;5.90;;;6.20;99.90;;;;;;5093665;28;20060;-71
2022/02/15 10:16:15;;;;;;;8.85;7.45;;;6.20;99.90;;;;;;5093970;28;20115;-71
2022/02/15 10:18:54;;;;;;;7.82;5.47;;;6.30;99.90;;;;;;5094013;28;20529;-71
2022/02/15 10:21:28;;;;;;;8.88;5.85;;;6.30;99.90;;;;;;5093340;28;20048;-71
2022/02/15 10:24:00;;;;;;;;;;;6.30;99.90;;;;;;5093314;28;20044;-71
2022/02/15 10:26:32;;;;;;;7.95;6.05;;;6.30;99.90;;;;;;5075289;28;19920;-71
2022/02/15 10:28:58;;;;;;;9.98;6.15;;;6.30;99.90;;;;;;5074539;28;20507;-72
2022/02/15 10:31:39;;;;;;;8.05;5.95;;;6.30;99.90;;;;;;5080049;28;20098;-71
2022/02/15 10:34:10;;;;;;;9.60;5.72;;;6.20;99.90;;;;;;5073065;28;20044;-71
2022/02/15 10:36:58;;;;;;;11.40;6.03;;;6.20;99.90;;;;;;5092949;28;20040;-71
2022/02/15 10:39:38;;;;;;;8.63;6.47;;;6.30;99.90;;;;;;5079928;28;20090;-72
2022/02/15 10:42:10;;;;;;;8.05;5.53;;;6.30;99.90;;;;;;5090851;28;20043;-71
2022/02/15 10:45:08;;;;;;;9.07;6.32;;;6.30;99.90;;;;;;5083467;28;20624;-71
2022/02/15 10:47:40;;;;;;;7.82;6.03;;;6.40;99.90;;;;;;5080568;28;20044;-71
2022/02/15 10:50:09;;;;;;;10.10;6.63;;;6.40;99.90;;;;;;5086719;28;20138;-71
2022/02/15 10:52:37;;;;;;;6.70;5.15;;;6.50;99.90;;;;;;5062094;28;20131;-71
2022/02/15 10:55:11;;;;;;;7.47;5.88;;;6.50;99.90;;;;;;5091345;28;20048;-72
2022/02/15 10:57:43;;;;;;;9.27;5.80;;;6.40;99.90;;;;;;5090552;28;20046;-72
2022/02/15 11:00:18;;;;;;;8.18;6.10;;;6.40;99.90;;;;;;5066002;28;20132;-71
2022/02/15 11:02:53;;;;;;;7.63;5.90;;;6.40;99.90;;;;;;5084252;28;20090;-72
2022/02/15 11:05:25;;;;;;;7.38;5.72;;;6.40;99.90;;;;;;5055258;28;20127;-71
2022/02/15 11:07:59;;;;;;;6.55;5.15;;;6.30;99.90;;;;;;5078600;28;20499;-71
2022/02/15 11:10:39;;;;;;;8.48;5.85;;;6.40;99.90;;;;;;5085678;28;20388;-71
2022/02/15 11:13:11;;;;;;;8.25;5.20;;;6.40;99.90;;;;;;5063047;28;20044;-71
2022/02/15 11:15:50;;;;;;;9.85;5.85;;;6.40;99.90;;;;;;5071412;28;20050;-72
2022/02/15 11:18:31;;;;;;;8.38;5.32;;;6.40;99.90;;;;;;5070789;28;20499;-72
2022/02/15 11:21:04;;;;;;;7.68;5.60;;;6.50;99.90;;;;;;5073801;28;20495;-72
2022/02/15 11:23:40;;;;;;;8.80;6.20;;;6.50;99.90;;;;;;5090444;28;20036;-71
2022/02/15 11:26:20;;;;;;;8.05;5.63;;;6.60;99.90;;;;;;5085804;28;20115;-71
2022/02/15 11:28:56;;;;;;;15.35;10.10;;;6.60;99.90;;;;;;5088897;28;20032;-72
2022/02/15 11:31:42;;;;;;;10.70;8.40;;;6.60;99.90;;;;;;5072298;28;20102;-71
2022/02/15 11:34:11;;;;;;;8.80;6.55;;;6.60;99.90;;;;;;5083533;28;20040;-71
2022/02/15 11:37:04;;;;;;;8.93;5.55;;;6.60;99.90;;;;;;5091370;28;20068;-70
2022/02/15 11:39:33;;;;;;;10.00;7.05;;;6.50;99.90;;;;;;5070512;28;20511;-70
2022/02/15 11:42:18;;;;;;;9.52;5.28;;;6.50;99.90;;;;;;5088381;28;20134;-71
2022/02/15 11:44:45;;;;;;;6.75;4.55;;;6.50;99.90;;;;;;5080082;28;20036;-71
2022/02/15 11:47:19;;;;;;;13.02;9.07;;;6.40;99.90;;;;;;5087416;28;20516;-71
2022/02/15 11:50:00;;;;;;;7.75;5.18;;;6.40;99.90;;;;;;5056627;28;20135;-72
2022/02/15 11:52:28;;;;;;;8.13;5.00;;;6.40;99.90;;;;;;5071548;28;20072;-72
2022/02/15 11:55:04;;;;;;;7.88;5.72;;;6.40;99.90;;;;;;5072038;28;20390;-71
2022/02/15 11:57:36;;;;;;;8.10;5.40;;;6.40;99.90;;;;;;5083945;28;20101;-72
2022/02/15 12:00:11;;;;;;;8.02;5.72;;;6.40;99.90;;;;;;5073456;28;20131;-72
2022/02/15 12:02:53;;;;;;;6.25;4.97;;;6.40;99.90;;;;;;5083777;28;20082;-72
2022/02/15 12:05:26;;;;;;;7.75;5.40;;;6.50;99.90;;;;;;5069026;28;20180;-72
2022/02/15 12:07:58;;;;;;;5.90;4.85;;;6.60;99.90;;;;;;5089205;28;20521;-72
2022/02/15 12:10:43;;;;;;;5.88;4.82;;;6.70;99.90;;;;;;5064620;28;20051;-72
2022/02/15 12:13:17;;;;;;;7.85;4.70;;;6.70;99.90;;;;;;5087748;28;20036;-72
2022/02/15 12:15:54;;;;;;;6.88;4.70;;;6.90;99.90;;;;;;5060780;28;20044;-72
2022/02/15 12:18:30;;;;;;;6.45;5.03;;;6.90;99.90;;;;;;5080736;28;20029;-72
2022/02/15 12:21:05;;;;;;;6.68;5.07;;;7.00;99.90;;;;;;5088989;28;20028;-72
2022/02/15 12:23:39;;;;;;;5.95;4.47;;;7.00;99.90;;;;;;5090069;28;20043;-72
2022/02/15 12:26:20;;;;;;;5.90;4.25;;;7.00;99.90;;;;;;5075242;28;20078;-72
2022/02/15 12:28:57;;;;;;;6.70;4.78;;;7.00;99.90;;;;;;5073679;28;20123;-72
2022/02/15 12:31:29;;;;;;;6.90;5.35;;;7.00;99.90;;;;;;5084001;28;20033;-73
2022/02/15 12:34:04;;;;;;;5.10;4.18;;;7.00;99.90;;;;;;5066818;28;20040;-72
2022/02/15 12:36:37;;;;;;;5.45;4.15;;;7.00;99.90;;;;;;5087719;28;20036;-72
2022/02/15 12:39:10;;;;;;;5.50;4.55;;;6.90;99.90;;;;;;5077375;28;20046;-72
2022/02/15 12:41:44;;;;;;;4.90;3.88;;;6.90;99.90;;;;;;5088670;28;20171;-72
2022/02/15 12:44:16;;;;;;;;;;;6.80;99.90;;;;;;5088033;28;20052;-72
2022/02/15 12:46:47;;;;;;;5.78;4.10;;;6.80;99.90;;;;;;5083565;28;20375;-72
2022/02/15 12:49:15;;;;;;;4.15;2.90;;;6.80;99.90;;;;;;5069999;28;20094;-72
2022/02/15 12:51:47;;;;;;;2.95;2.53;;;6.70;99.90;;;;;;5088024;28;20042;-73
2022/02/15 12:54:20;;;;;;;3.97;2.60;;;6.20;99.90;;;;;;5074404;28;20725;-73
2022/02/15 12:56:52;;;;;;;4.75;2.33;;;5.70;99.90;;;;;;5084900;28;20048;-72
2022/02/15 12:59:25;;;;;;;2.50;2.15;;;5.40;99.90;;;;;;5087971;28;20046;-73
2022/02/15 13:01:59;;;;;;;2.65;1.95;;;5.20;99.90;;;;;;5087015;28;20044;-72
2022/02/15 13:04:30;;;;;;;2.13;1.60;;;5.00;99.90;;;;;;5054332;28;20036;-72
2022/02/15 13:07:05;;;;;;;2.42;2.00;;;4.80;99.90;;;;;;5087733;28;20089;-72
2022/02/15 13:09:37;;;;;;;3.13;2.33;;;4.70;99.90;;;;;;5097794;28;20035;-73
2022/02/15 13:12:08;;;;;;;3.33;2.20;;;4.60;99.90;;;;;;5088177;28;20039;-72
2022/02/15 13:14:48;;;;;;;4.85;3.15;;;4.50;99.90;;;;;;5091850;28;20043;-73
2022/02/15 13:17:22;;;;;;;7.88;3.65;;;4.50;99.90;;;;;;5090571;28;20052;-73
2022/02/15 13:19:54;;;;;;;5.35;2.88;;;4.50;99.90;;;;;;5084568;28;20495;-73
2022/02/15 13:22:27;;;;;;;3.80;1.67;;;4.50;99.90;;;;;;5085841;28;20045;-73
2022/02/15 13:24:59;;;;;;;2.63;1.80;;;4.50;99.90;;;;;;5087814;28;20047;-73
2022/02/15 13:27:29;;;;;;;3.35;1.95;;;4.60;99.90;;;;;;5091247;28;20575;-73
2022/02/15 13:30:20;;;;;;;2.10;1.77;;;4.60;99.90;;;;;;5077558;28;20052;-73
2022/02/15 13:32:58;;;;;;;2.10;1.33;;;4.50;99.90;;;;;;5086992;28;20555;-72
2022/02/15 13:35:31;;;;;;;3.20;1.75;;;4.50;99.90;;;;;;5057330;28;20102;-73